Time;durP1;ratioP1;P1;durP2;ratioP2;P2;SDS_P1;SDS_P2;PMS_P1;PMS_P2;Temp;Humidity;BMP_temperature;BMP_pressure;BME280_temperature;BME280_humidity;BME280_pressure;Samples;Min_cycle;Max_cycle;Signal;HPM_P1;HPM_P2
2021/10/22 00:02:12;;;;;;;3.65;1.00;;;;;;;20.19;44.59;101445.69;4992745;28;20272;-60
2021/10/22 00:04:37;;;;;;;2.78;0.93;;;;;;;20.17;44.60;101453.75;4993698;28;20053;-60
2021/10/22 00:07:03;;;;;;;2.38;1.00;;;;;;;20.16;44.44;101456.53;4992679;28;20014;-60
2021/10/22 00:09:29;;;;;;;2.80;1.08;;;;;;;20.14;44.42;101445.19;4993751;28;20035;-60
2021/10/22 00:11:57;;;;;;;2.53;0.75;;;;;;;20.11;44.60;101449.78;4993785;28;20418;-60
2021/10/22 00:14:22;;;;;;;2.13;0.70;;;;;;;20.10;44.70;101449.91;4992863;28;20046;-60
2021/10/22 00:16:48;;;;;;;3.63;0.80;;;;;;;20.09;44.69;101448.22;4992507;28;20038;-61
2021/10/22 00:19:13;;;;;;;3.17;0.90;;;;;;;20.08;44.57;101449.19;4992859;28;20042;-61
2021/10/22 00:21:41;;;;;;;3.28;1.10;;;;;;;20.07;44.40;101439.56;4992689;28;20033;-60
2021/10/22 00:24:07;;;;;;;4.10;0.90;;;;;;;20.06;44.34;101443.16;4993229;28;20049;-60
2021/10/22 00:26:32;;;;;;;3.85;1.20;;;;;;;20.04;44.39;101442.44;4993185;28;20109;-61
2021/10/22 00:28:58;;;;;;;2.85;0.93;;;;;;;20.03;44.68;101443.44;4992367;28;20028;-60
2021/10/22 00:31:23;;;;;;;3.88;1.00;;;;;;;20.02;44.59;101439.94;4993320;28;20053;-60
2021/10/22 00:33:50;;;;;;;4.07;1.00;;;;;;;20.00;44.51;101447.16;4993258;28;20026;-61
2021/10/22 00:36:19;;;;;;;3.08;1.00;;;;;;;19.98;44.43;101453.50;4992115;28;20085;-59
2021/10/22 00:38:44;;;;;;;3.83;1.00;;;;;;;19.97;44.60;101454.50;4993345;28;20041;-61
2021/10/22 00:41:10;;;;;;;3.03;1.05;;;;;;;19.95;44.47;101449.34;4992338;28;20030;-60
2021/10/22 00:43:36;;;;;;;3.88;1.10;;;;;;;19.94;44.44;101450.28;4992401;28;20030;-60
2021/10/22 00:46:01;;;;;;;4.07;0.90;;;;;;;19.93;44.57;101449.44;4992681;28;20022;-59
2021/10/22 00:48:30;;;;;;;3.30;0.98;;;;;;;19.92;44.34;101444.28;4992977;28;20023;-60
2021/10/22 00:50:59;;;;;;;4.50;1.00;;;;;;;19.92;44.21;101441.63;4992372;28;20026;-60
2021/10/22 00:53:25;;;;;;;5.18;1.33;;;;;;;19.90;44.40;101447.03;4992793;28;20050;-60
2021/10/22 00:55:54;;;;;;;3.33;1.10;;;;;;;19.90;44.40;101443.53;4992768;28;20487;-60
2021/10/22 00:58:21;;;;;;;4.30;1.70;;;;;;;19.88;44.36;101440.19;4991943;28;20402;-61
2021/10/22 01:00:46;;;;;;;3.80;1.10;;;;;;;19.87;44.10;101439.34;4992016;28;20026;-61
2021/10/22 01:03:15;;;;;;;3.90;1.03;;;;;;;19.85;44.28;101441.28;4992348;28;20466;-61
2021/10/22 01:05:42;;;;;;;3.75;1.13;;;;;;;19.84;44.47;101438.75;4992309;28;20306;-61
2021/10/22 01:08:09;;;;;;;4.40;1.20;;;;;;;19.82;44.20;101441.53;4992490;28;20030;-60
2021/10/22 01:10:37;;;;;;;3.63;1.00;;;;;;;19.82;44.12;101432.72;4991947;28;20058;-59
2021/10/22 01:13:07;;;;;;;3.60;1.10;;;;;;;19.82;44.33;101444.19;4992121;28;20398;-60
2021/10/22 01:15:32;;;;;;;4.43;1.38;;;;;;;19.81;44.56;101441.66;4992708;28;20052;-60
2021/10/22 01:17:59;;;;;;;3.83;1.35;;;;;;;19.79;44.27;101438.25;4991695;28;20054;-61
2021/10/22 01:20:25;;;;;;;3.80;1.40;;;;;;;19.78;44.19;101433.94;4992922;28;20384;-60
2021/10/22 01:22:52;;;;;;;3.85;1.08;;;;;;;19.77;44.09;101441.03;4993051;28;20109;-61
2021/10/22 01:25:23;;;;;;;4.82;1.35;;;;;;;19.78;44.27;101428.66;4991793;28;20109;-62
2021/10/22 01:27:49;;;;;;;5.10;1.60;;;;;;;19.77;43.81;101426.97;4992786;28;20026;-61
2021/10/22 01:30:16;;;;;;;3.65;1.20;;;;;;;19.74;44.08;101433.31;4992487;28;20049;-61
2021/10/22 01:32:43;;;;;;;3.58;1.35;;;;;;;19.74;44.03;101422.72;4991842;28;20026;-61
2021/10/22 01:35:09;;;;;;;4.40;1.60;;;;;;;19.73;43.85;101413.13;4992332;28;20037;-61
2021/10/22 01:37:36;;;;;;;4.82;1.30;;;;;;;19.71;43.92;101410.59;4992472;28;20045;-60
2021/10/22 01:40:03;;;;;;;4.35;1.27;;;;;;;19.71;43.95;101420.31;4991402;28;20038;-61
2021/10/22 01:42:29;;;;;;;3.95;1.20;;;;;;;19.69;44.01;101417.81;4992626;28;20027;-61
2021/10/22 01:44:54;;;;;;;3.22;1.10;;;;;;;19.66;43.87;101411.91;4992771;28;20037;-60
2021/10/22 01:47:20;;;;;;;4.07;1.42;;;;;;;19.67;43.86;101416.25;4991819;28;20080;-60
2021/10/22 01:49:46;;;;;;;5.00;1.40;;;;;;;19.66;43.85;101414.56;4992575;28;20018;-60
2021/10/22 01:52:11;;;;;;;6.15;1.70;;;;;;;19.66;43.81;101422.50;4992477;28;20485;-60
2021/10/22 01:54:37;;;;;;;3.30;1.27;;;;;;;19.65;43.94;101426.94;4991520;28;20043;-61
2021/10/22 01:57:03;;;;;;;4.35;1.88;;;;;;;19.64;43.79;101414.69;4992257;28;20022;-60
2021/10/22 01:59:29;;;;;;;6.70;1.50;;;;;;;19.63;43.68;101418.31;4992553;28;20026;-60
2021/10/22 02:01:54;;;;;;;4.78;1.40;;;;;;;19.63;43.64;101422.72;4991768;28;20482;-61
2021/10/22 02:04:19;;;;;;;3.67;1.20;;;;;;;19.62;43.61;101419.25;4992671;28;20054;-61
2021/10/22 02:06:47;;;;;;;4.30;1.30;;;;;;;19.61;43.64;101419.38;4991936;28;20497;-59
2021/10/22 02:09:16;;;;;;;5.35;1.63;;;;;;;19.58;43.56;101417.81;4992060;28;20776;-60
2021/10/22 02:11:41;;;;;;;5.47;1.83;;;;;;;19.57;43.96;101421.44;4993447;28;20026;-61
2021/10/22 02:14:07;;;;;;;4.50;1.50;;;;;;;19.57;43.77;101424.06;4994890;28;20029;-61
2021/10/22 02:16:35;;;;;;;3.47;1.38;;;;;;;19.56;43.49;101427.66;4995997;28;20026;-61
2021/10/22 02:19:00;;;;;;;4.07;1.17;;;;;;;19.56;43.56;101431.13;4995877;28;20073;-61
2021/10/22 02:21:26;;;;;;;4.88;1.50;;;;;;;19.55;43.41;101418.03;4995235;28;20151;-62
2021/10/22 02:23:52;;;;;;;4.65;1.30;;;;;;;19.55;43.59;101424.19;4995829;28;20031;-60
2021/10/22 02:26:17;;;;;;;5.57;1.80;;;;;;;19.55;43.43;101418.03;4995514;28;20035;-61
2021/10/22 02:28:43;;;;;;;3.97;1.40;;;;;;;19.53;43.59;101410.22;4994931;28;20470;-60
2021/10/22 02:31:08;;;;;;;5.33;1.30;;;;;;;19.54;43.54;101419.84;4995213;28;20113;-60
2021/10/22 02:33:33;;;;;;;4.20;1.25;;;;;;;19.54;43.35;101421.66;4995730;28;20283;-61
2021/10/22 02:36:04;;;;;;;5.32;1.45;;;;;;;19.53;43.24;101423.44;4994629;28;20026;-61
2021/10/22 02:38:29;;;;;;;5.72;1.73;;;;;;;19.51;43.48;101417.44;4995762;28;20054;-61
2021/10/22 02:40:55;;;;;;;4.55;1.42;;;;;;;19.51;43.40;101419.25;4995563;28;20561;-61
2021/10/22 02:43:23;;;;;;;4.20;1.40;;;;;;;19.49;43.44;101415.91;4994318;28;20470;-60
2021/10/22 02:45:51;;;;;;;5.57;1.50;;;;;;;19.47;43.48;101405.44;4995598;28;20030;-61
2021/10/22 02:48:16;;;;;;;4.65;1.48;;;;;;;19.46;43.16;101416.97;4995019;28;20441;-60
2021/10/22 02:50:42;;;;;;;5.25;1.33;;;;;;;19.45;43.58;101407.34;4993877;28;20046;-60
2021/10/22 02:53:07;;;;;;;4.65;1.30;;;;;;;19.45;43.28;101402.06;4995175;28;20030;-61
2021/10/22 02:55:32;;;;;;;4.30;1.42;;;;;;;19.45;43.50;101407.34;4995158;28;20055;-60
2021/10/22 02:57:57;;;;;;;3.67;1.33;;;;;;;19.44;43.30;101404.81;4994194;28;20487;-60
2021/10/22 03:00:23;;;;;;;5.00;1.30;;;;;;;19.44;43.30;101402.19;4995315;28;20315;-59
2021/10/22 03:02:48;;;;;;;3.47;1.42;;;;;;;19.42;43.39;101399.66;4994953;28;20284;-60
2021/10/22 03:05:14;;;;;;;4.78;1.30;;;;;;;19.41;43.37;101395.34;4994418;28;20018;-61
2021/10/22 03:07:40;;;;;;;4.18;1.30;;;;;;;19.42;43.57;101393.53;4995147;28;20105;-60
2021/10/22 03:10:07;;;;;;;3.88;1.20;;;;;;;19.39;43.14;101387.53;4993868;28;20031;-59
2021/10/22 03:12:33;;;;;;;5.82;1.50;;;;;;;19.39;43.41;101395.47;4994646;28;20157;-60
2021/10/22 03:14:58;;;;;;;5.28;1.48;;;;;;;19.38;43.16;101387.66;4994779;28;20088;-61
2021/10/22 03:17:27;;;;;;;4.75;1.33;;;;;;;19.38;43.16;101380.56;4994015;28;20109;-61
2021/10/22 03:19:52;;;;;;;4.13;1.50;;;;;;;19.37;43.14;101381.50;4994865;28;20049;-60
2021/10/22 03:22:17;;;;;;;4.15;1.30;;;;;;;19.37;43.16;101378.88;4994341;28;20478;-59
2021/10/22 03:24:42;;;;;;;5.70;1.50;;;;;;;19.36;43.34;101386.94;4993386;28;20128;-60
2021/10/22 03:27:12;;;;;;;5.80;1.70;;;;;;;19.36;43.36;101392.22;4994396;28;20290;-59
2021/10/22 03:29:38;;;;;;;5.18;1.38;;;;;;;19.34;43.17;101389.72;4994890;28;20629;-59
2021/10/22 03:32:04;;;;;;;2.85;1.10;;;;;;;19.35;43.25;101385.25;4993730;28;20117;-60
2021/10/22 03:34:29;;;;;;;3.78;1.30;;;;;;;19.33;43.37;101388.00;4994372;28;20459;-61
2021/10/22 03:36:55;;;;;;;3.95;1.27;;;;;;;19.32;43.12;101388.13;4994582;28;20035;-60
2021/10/22 03:39:20;;;;;;;4.07;1.08;;;;;;;19.31;43.06;101386.44;4993437;28;20018;-60
2021/10/22 03:41:49;;;;;;;4.83;1.37;;;;;;;19.29;43.01;101386.56;4994328;28;20022;-60
2021/10/22 03:44:14;;;;;;;5.20;1.38;;;;;;;19.29;42.87;101388.38;4994180;28;20278;-60
2021/10/22 03:46:40;;;;;;;4.18;1.40;;;;;;;19.27;42.99;101383.19;4993630;28;20039;-60
2021/10/22 03:49:05;;;;;;;4.07;1.33;;;;;;;19.27;42.85;101385.84;4993951;28;20033;-60
2021/10/22 03:51:30;;;;;;;5.33;1.40;;;;;;;19.26;43.03;101381.50;4994097;28;20038;-60
2021/10/22 03:53:55;;;;;;;5.43;1.93;;;;;;;19.25;43.03;101386.91;4993121;28;20768;-60
2021/10/22 03:56:21;;;;;;;3.85;1.40;;;;;;;19.25;43.15;101378.97;4993869;28;20296;-60
2021/10/22 03:58:46;;;;;;;4.57;1.27;;;;;;;19.23;42.80;101371.19;4994187;28;20022;-60
2021/10/22 04:01:15;;;;;;;4.25;1.33;;;;;;;19.22;42.83;101361.59;4992854;28;20109;-59
2021/10/22 04:03:41;;;;;;;4.25;1.42;;;;;;;19.24;42.80;101366.75;4994139;28;20026;-60
2021/10/22 04:06:06;;;;;;;4.90;1.67;;;;;;;19.23;43.02;101367.69;4993168;28;20080;-60
2021/10/22 04:08:31;;;;;;;4.93;1.55;;;;;;;19.20;43.15;101361.72;4993413;28;20077;-60
2021/10/22 04:10:57;;;;;;;4.85;1.52;;;;;;;19.20;42.97;101363.47;4993283;28;20023;-60
2021/10/22 04:13:22;;;;;;;4.60;1.45;;;;;;;19.20;42.93;101372.28;4992885;28;20035;-60
2021/10/22 04:15:48;;;;;;;6.15;1.50;;;;;;;19.20;43.12;101372.28;4993763;28;20122;-60
2021/10/22 04:18:15;;;;;;;4.63;1.35;;;;;;;19.21;43.06;101376.56;4993554;28;20549;-60
2021/10/22 04:20:43;;;;;;;4.38;1.60;;;;;;;19.26;43.10;101378.88;4992717;28;20553;-60
2021/10/22 04:23:09;;;;;;;4.55;1.20;;;;;;;19.32;43.12;101386.31;4993279;28;20030;-60
2021/10/22 04:25:35;;;;;;;5.15;1.85;;;;;;;19.35;42.88;101385.25;4993367;28;20049;-59
2021/10/22 04:28:06;;;;;;;5.82;1.40;;;;;;;19.38;42.75;101392.94;4992711;28;20378;-61
2021/10/22 04:30:31;;;;;;;3.97;1.30;;;;;;;19.42;42.63;101386.44;4993786;28;20033;-60
2021/10/22 04:32:57;;;;;;;4.88;1.30;;;;;;;19.44;42.31;101387.19;4993009;28;20038;-61
2021/10/22 04:35:25;;;;;;;5.03;1.65;;;;;;;19.46;42.55;101395.81;4991965;28;20022;-60
2021/10/22 04:40:32;;;;;;;4.38;1.50;;;;;;;19.48;42.08;101404.47;4992992;28;20014;-60
2021/10/22 04:43:11;;;;;;;3.85;1.30;;;;;;;19.49;42.01;101400.88;4992398;28;20390;-61
2021/10/22 04:45:38;;;;;;;3.75;1.33;;;;;;;19.50;41.98;101409.63;4993352;28;20026;-60
2021/10/22 04:48:08;;;;;;;4.32;1.30;;;;;;;19.50;42.03;101396.41;4993070;28;20093;-60
2021/10/22 04:50:41;;;;;;;4.10;1.30;;;;;;;19.51;42.06;101404.22;4992441;28;20061;-60
2021/10/22 04:53:10;;;;;;;5.22;1.63;;;;;;;19.51;42.04;101400.75;4992885;28;20076;-60
2021/10/22 04:55:38;;;;;;;4.22;1.30;;;;;;;19.51;42.00;101392.81;4992315;28;20486;-60
2021/10/22 04:58:03;;;;;;;5.45;1.50;;;;;;;19.51;41.94;101401.59;4992929;28;20035;-61
2021/10/22 05:00:28;;;;;;;5.35;1.60;;;;;;;19.52;42.00;101392.69;4993187;28;20041;-61
2021/10/22 05:02:54;;;;;;;4.22;1.23;;;;;;;19.52;41.93;101399.81;4992384;28;20038;-59
2021/10/22 05:05:19;;;;;;;4.32;1.30;;;;;;;19.52;41.77;101407.72;4993054;28;20057;-60
2021/10/22 05:07:50;;;;;;;4.23;1.40;;;;;;;19.52;41.77;101415.66;4993051;28;20077;-60
2021/10/22 05:10:16;;;;;;;3.50;1.17;;;;;;;19.51;41.78;101414.81;4992100;28;20752;-60
2021/10/22 05:12:41;;;;;;;5.20;1.73;;;;;;;19.51;41.86;101417.44;4992958;28;20026;-61
2021/10/22 05:15:10;;;;;;;4.03;1.20;;;;;;;19.51;41.79;101422.72;4992185;28;20073;-61
2021/10/22 05:17:36;;;;;;;2.92;1.20;;;;;;;19.49;41.91;101422.03;4992211;28;20088;-60
2021/10/22 05:20:08;;;;;;;4.63;1.20;;;;;;;19.51;42.01;101420.09;4992596;28;20050;-60
2021/10/22 05:22:35;;;;;;;5.53;1.63;;;;;;;19.55;41.95;101428.63;4993034;28;20034;-60
2021/10/22 05:25:01;;;;;;;4.70;1.45;;;;;;;19.58;41.76;101437.16;4991973;28;20030;-59
2021/10/22 05:27:26;;;;;;;5.65;1.40;;;;;;;19.65;41.92;101437.53;4992796;28;20029;-60
2021/10/22 05:29:54;;;;;;;3.80;1.10;;;;;;;19.74;42.20;101428.00;4992723;28;20549;-60
2021/10/22 05:32:19;;;;;;;5.30;1.30;;;;;;;19.84;42.02;101430.81;4991771;28;20394;-59
2021/10/22 05:34:47;;;;;;;3.33;1.03;;;;;;;19.90;42.25;101433.81;4992983;28;20038;-59
2021/10/22 05:37:13;;;;;;;3.35;1.05;;;;;;;19.98;41.98;101448.22;4992440;28;20871;-60
2021/10/22 05:39:38;;;;;;;5.80;1.40;;;;;;;20.07;42.83;101444.84;4992213;28;20034;-60
2021/10/22 05:42:04;;;;;;;4.68;1.10;;;;;;;20.14;43.45;101421.38;4992611;28;20593;-60
2021/10/22 05:44:29;;;;;;;4.57;1.30;;;;;;;20.21;43.54;101419.94;4992654;28;20026;-61
2021/10/22 05:46:55;;;;;;;5.10;1.10;;;;;;;20.25;43.40;101402.81;4993250;28;20108;-60
2021/10/22 05:49:22;;;;;;;3.97;1.02;;;;;;;20.28;43.56;101403.44;4996576;28;20034;-60
2021/10/22 05:51:48;;;;;;;4.10;1.20;;;;;;;20.34;43.87;101398.59;4995620;28;20360;-61
2021/10/22 05:54:14;;;;;;;4.20;1.50;;;;;;;20.41;43.89;101400.63;4995985;28;20390;-61
2021/10/22 05:56:40;;;;;;;3.70;1.10;;;;;;;20.48;43.58;101393.84;4996463;28;20105;-61
2021/10/22 05:59:05;;;;;;;3.50;1.00;;;;;;;20.55;43.58;101396.81;4995303;28;20027;-61
2021/10/22 06:01:36;;;;;;;4.00;1.00;;;;;;;20.58;43.54;101393.91;4996335;28;20022;-60
2021/10/22 06:04:02;;;;;;;4.40;1.20;;;;;;;20.61;43.48;101393.66;4996166;28;20290;-60
2021/10/22 06:06:30;;;;;;;4.25;1.13;;;;;;;20.67;43.21;101394.16;4995659;28;20030;-61
2021/10/22 06:08:57;;;;;;;3.90;1.08;;;;;;;20.71;43.38;101383.19;4995924;28;20429;-60
2021/10/22 06:11:22;;;;;;;3.03;1.15;;;;;;;20.74;43.11;101377.59;4996295;28;20030;-61
2021/10/22 06:13:47;;;;;;;2.70;0.85;;;;;;;20.76;43.10;101380.97;4995234;28;20386;-60
2021/10/22 06:16:14;;;;;;;3.85;1.10;;;;;;;20.77;43.20;101379.16;4995928;28;20054;-60
2021/10/22 06:18:51;;;;;;;3.55;1.20;;;;;;;20.78;43.18;101386.97;4996177;28;20104;-60
2021/10/22 06:21:28;;;;;;;3.38;1.05;;;;;;;20.83;42.99;101381.31;4995150;28;20297;-60
2021/10/22 06:24:01;;;;;;;4.90;1.10;;;;;;;20.88;42.87;101387.03;4995891;28;20026;-61
2021/10/22 06:26:32;;;;;;;4.40;1.10;;;;;;;20.87;41.48;101379.22;4995785;28;20034;-61
2021/10/22 06:28:59;;;;;;;4.00;1.40;;;;;;;20.73;39.59;101361.84;4994841;28;20073;-61
2021/10/22 06:31:25;;;;;;;3.45;1.30;;;;;;;20.69;41.62;101360.44;4995735;28;20026;-61
2021/10/22 06:33:50;;;;;;;4.57;1.30;;;;;;;20.68;41.80;101367.56;4995119;28;20045;-61
2021/10/22 06:36:17;;;;;;;3.45;1.10;;;;;;;20.70;42.41;101360.31;4995334;28;20926;-64
2021/10/22 06:38:45;;;;;;;3.97;1.63;;;;;;;20.67;42.85;101360.56;4995539;28;20084;-63
2021/10/22 06:41:10;;;;;;;4.22;1.30;;;;;;;20.68;42.85;101366.69;4994676;28;20129;-63
2021/10/22 06:43:37;;;;;;;3.50;1.10;;;;;;;20.66;43.12;101369.47;4995656;28;20157;-63
2021/10/22 06:46:03;;;;;;;3.53;1.10;;;;;;;20.68;42.69;101372.00;4995358;28;20046;-62
2021/10/22 06:48:32;;;;;;;6.22;1.23;;;;;;;20.75;42.55;101376.66;4994885;28;20487;-63
2021/10/22 06:50:58;;;;;;;3.67;1.10;;;;;;;20.82;42.28;101382.25;4995108;28;20030;-59
2021/10/22 06:53:23;;;;;;;2.92;0.90;;;;;;;20.88;42.06;101379.09;4995342;28;20493;-62
2021/10/22 06:55:49;;;;;;;4.07;1.20;;;;;;;20.88;42.33;101372.97;4994908;28;20486;-63
2021/10/22 06:58:14;;;;;;;3.83;1.25;;;;;;;20.84;42.66;101381.16;4993795;28;20086;-62
2021/10/22 07:00:39;;;;;;;3.40;1.20;;;;;;;20.82;42.89;101385.78;4995286;28;20034;-63
2021/10/22 07:03:05;;;;;;;4.57;1.33;;;;;;;20.82;42.87;101392.84;4994250;28;20026;-61
2021/10/22 07:08:07;;;;;;;4.05;1.05;;;;;;;20.94;42.53;101402.44;4994997;28;20395;-61
2021/10/22 07:10:33;;;;;;;7.73;1.17;;;;;;;21.02;41.84;101402.59;4994371;28;20026;-61
2021/10/22 07:12:59;;;;;;;5.07;1.10;;;;;;;21.03;41.36;101403.47;4994496;28;20027;-61
2021/10/22 07:15:26;;;;;;;4.60;1.20;;;;;;;21.01;41.53;101394.78;4995137;28;20031;-64
2021/10/22 07:17:52;;;;;;;5.85;1.05;;;;;;;21.02;41.69;101396.47;4994273;28;20034;-61
2021/10/22 07:20:18;;;;;;;4.53;1.20;;;;;;;20.94;41.69;101389.19;4994779;28;20039;-60
2021/10/22 07:23:03;;;;;;;3.15;1.08;;;;;;;20.94;41.94;101393.66;4995281;28;20022;-60
2021/10/22 07:25:29;;;;;;;4.70;1.25;;;;;;;20.99;42.12;101394.91;4994656;28;20480;-61
2021/10/22 07:27:59;;;;;;;3.17;1.08;;;;;;;21.07;42.15;101404.88;4995017;28;20379;-62
2021/10/22 07:30:25;;;;;;;3.05;1.10;;;;;;;21.12;41.96;101409.78;4994219;28;20491;-62
2021/10/22 07:32:50;;;;;;;4.57;1.25;;;;;;;21.15;41.90;101398.91;4994730;28;20031;-61
2021/10/22 07:35:16;;;;;;;4.72;1.23;;;;;;;21.14;41.79;101406.03;4994530;28;20446;-61
2021/10/22 07:37:43;;;;;;;3.85;1.33;;;;;;;21.12;41.68;101400.00;4994048;28;20038;-61
2021/10/22 07:40:09;;;;;;;4.03;1.13;;;;;;;21.13;41.94;101412.31;4994391;28;20029;-61
2021/10/22 07:42:39;;;;;;;5.57;1.30;;;;;;;21.16;41.96;101409.41;4994476;28;20026;-61
2021/10/22 07:45:09;;;;;;;4.10;1.27;;;;;;;21.11;40.97;101408.09;4993393;28;20176;-61
2021/10/22 07:47:36;;;;;;;5.00;1.10;;;;;;;21.07;41.01;101422.59;4994153;28;20046;-62
2021/10/22 07:50:05;;;;;;;3.97;1.20;;;;;;;21.06;41.53;101426.19;4994173;28;20129;-61
2021/10/22 07:52:31;;;;;;;3.92;1.15;;;;;;;21.00;41.21;101427.56;4993535;28;20148;-61
2021/10/22 07:54:59;;;;;;;5.70;1.45;;;;;;;21.00;41.65;101432.88;4993672;28;20080;-61
2021/10/22 07:57:26;;;;;;;3.85;1.20;;;;;;;21.01;42.02;101435.41;4994063;28;20027;-61
2021/10/22 07:59:53;;;;;;;3.50;1.00;;;;;;;21.08;41.94;101435.72;4993424;28;20172;-62
2021/10/22 08:02:19;;;;;;;4.80;1.20;;;;;;;21.08;41.92;101429.56;4993631;28;20462;-60
2021/10/22 08:04:45;;;;;;;3.70;1.10;;;;;;;21.07;40.43;101441.13;4993979;28;20026;-61
2021/10/22 08:07:16;;;;;;;3.60;1.30;;;;;;;21.07;41.29;101439.31;4993067;28;20026;-61
2021/10/22 08:09:43;;;;;;;4.32;1.40;;;;;;;21.04;41.85;101436.09;4993944;28;20022;-61
2021/10/22 08:12:11;;;;;;;5.18;1.17;;;;;;;20.98;42.14;101443.59;4993454;28;20403;-64
2021/10/22 08:14:36;;;;;;;4.20;1.13;;;;;;;20.98;42.39;101443.59;4992911;28;20030;-63
2021/10/22 08:17:02;;;;;;;6.05;1.05;;;;;;;20.99;42.13;101447.09;4993690;28;20443;-63
2021/10/22 08:19:27;;;;;;;3.67;1.15;;;;;;;21.00;42.67;101449.59;4993224;28;20454;-63
2021/10/22 08:22:25;;;;;;;4.35;1.00;;;;;;;21.02;42.54;101454.78;4993538;28;20039;-63
2021/10/22 08:24:41;;;;;;;4.22;1.42;;;;;;;21.08;42.65;101448.97;4993736;28;20041;-64
2021/10/22 08:27:07;;;;;;;5.18;1.27;;;;;;;21.15;42.50;101457.22;4992631;28;20026;-62
2021/10/22 08:29:33;;;;;;;4.13;1.10;;;;;;;21.18;42.68;101454.31;4993794;28;20033;-62
2021/10/22 08:31:59;;;;;;;4.43;1.40;;;;;;;21.22;42.58;101455.75;4993433;28;20034;-63
2021/10/22 08:34:24;;;;;;;4.15;1.23;;;;;;;21.24;42.55;101452.94;4992720;28;20036;-62
2021/10/22 08:36:49;;;;;;;4.30;1.10;;;;;;;21.26;42.60;101456.31;4993590;28;20057;-64
2021/10/22 08:39:16;;;;;;;4.78;1.15;;;;;;;21.28;42.69;101449.91;4993124;28;20292;-63
2021/10/22 08:41:42;;;;;;;5.20;1.20;;;;;;;21.29;42.70;101456.06;4992508;28;20109;-61
2021/10/22 08:44:09;;;;;;;6.22;1.50;;;;;;;21.29;42.67;101453.41;4993238;28;20034;-61
2021/10/22 08:46:36;;;;;;;4.78;1.20;;;;;;;21.27;42.71;101456.19;4993301;28;20026;-61
2021/10/22 08:49:02;;;;;;;5.00;1.23;;;;;;;21.28;42.89;101468.47;4992197;28;20092;-62
2021/10/22 08:51:28;;;;;;;5.50;2.30;;;;;;;21.27;42.97;101450.91;4993354;28;20394;-62
2021/10/22 08:53:53;;;;;;;4.35;1.00;;;;;;;21.25;43.04;101454.63;4993311;28;20030;-59
2021/10/22 08:56:19;;;;;;;6.45;1.35;;;;;;;21.25;43.27;101449.34;4991830;28;20078;-61
2021/10/22 08:58:44;;;;;;;5.30;1.40;;;;;;;21.24;43.37;101452.94;4993282;28;20039;-62
2021/10/22 09:01:10;;;;;;;4.97;1.60;;;;;;;21.23;43.20;101449.47;4992839;28;20493;-61
2021/10/22 09:03:40;;;;;;;5.75;1.23;;;;;;;21.22;43.47;101465.50;4992362;28;20030;-62
2021/10/22 09:06:13;;;;;;;5.35;1.30;;;;;;;21.17;43.43;101458.78;4992666;28;20394;-61
2021/10/22 09:08:40;;;;;;;4.10;1.00;;;;;;;21.19;43.74;101459.50;4992182;28;20023;-61
2021/10/22 09:11:19;;;;;;;6.22;1.10;;;;;;;21.23;43.72;101460.06;4992936;28;20108;-62
2021/10/22 09:14:14;;;;;;;4.05;1.13;;;;;;;21.28;43.68;101452.56;4992759;28;20402;-62
2021/10/22 09:16:41;;;;;;;5.60;1.15;;;;;;;21.30;43.48;101461.25;4992229;28;20079;-62
2021/10/22 09:19:06;;;;;;;6.35;1.20;;;;;;;21.34;43.27;101462.63;4992712;28;20406;-61
2021/10/22 09:21:32;;;;;;;4.35;1.10;;;;;;;21.37;43.26;101477.47;4995161;28;20027;-63
2021/10/22 09:24:14;;;;;;;5.57;1.10;;;;;;;21.39;43.49;101467.56;4998373;28;20033;-60
2021/10/22 09:26:39;;;;;;;4.80;1.25;;;;;;;21.40;43.48;101465.75;4999477;28;20173;-60
2021/10/22 09:29:19;;;;;;;3.33;0.98;;;;;;;21.44;43.15;101467.16;4998973;28;20552;-60
2021/10/22 09:31:50;;;;;;;5.78;1.30;;;;;;;21.44;42.94;101467.16;4998612;28;20367;-61
2021/10/22 09:34:31;;;;;;;5.20;1.10;;;;;;;21.39;43.22;101467.56;4998930;28;20393;-60
2021/10/22 09:36:56;;;;;;;6.20;1.20;;;;;;;21.35;43.37;101460.84;4998435;28;20105;-62
2021/10/22 09:39:22;;;;;;;6.38;1.25;;;;;;;21.26;43.12;101461.63;4999291;28;20165;-62
2021/10/22 09:41:58;;;;;;;5.95;1.17;;;;;;;21.20;43.32;101468.28;5000694;28;20466;-60
2021/10/22 09:44:25;;;;;;;4.38;1.20;;;;;;;21.20;43.52;101465.63;5000076;28;20044;-66
2021/10/22 09:47:09;;;;;;;2.95;1.05;;;;;;;21.22;43.29;101465.50;4999858;28;20032;-63
2021/10/22 09:49:46;;;;;;;5.53;1.90;;;;;;;21.26;43.17;101473.06;4999643;28;20027;-63
2021/10/22 09:52:27;;;;;;;3.80;1.15;;;;;;;21.30;43.01;101476.28;4998924;28;20022;-62
2021/10/22 09:55:07;;;;;;;4.97;1.20;;;;;;;21.34;42.96;101470.59;4999950;28;20053;-62
2021/10/22 09:57:32;;;;;;;5.65;2.03;;;;;;;21.38;42.76;101479.16;5000215;28;20034;-64
2021/10/22 10:00:13;;;;;;;4.60;1.27;;;;;;;21.42;42.62;101488.50;4999755;28;20069;-64
2021/10/22 10:02:39;;;;;;;6.70;1.30;;;;;;;21.43;42.42;101476.06;4999873;28;20368;-64
2021/10/22 10:05:09;;;;;;;5.40;1.20;;;;;;;21.45;42.50;101490.06;4998915;28;20474;-62
2021/10/22 10:07:43;;;;;;;7.28;1.35;;;;;;;21.48;42.42;101487.16;5000297;28;20030;-63
2021/10/22 10:10:10;;;;;;;3.63;1.17;;;;;;;21.47;41.61;101490.75;4998972;28;20104;-62
2021/10/22 10:12:39;;;;;;;4.05;1.25;;;;;;;21.46;42.41;101483.78;4998350;28;20057;-62
2021/10/22 10:15:05;;;;;;;4.10;1.05;;;;;;;21.47;42.65;101490.75;4998772;28;20157;-62
2021/10/22 10:17:37;;;;;;;4.22;1.20;;;;;;;21.45;42.58;101485.59;4998704;28;20027;-61
2021/10/22 10:20:03;;;;;;;6.38;1.55;;;;;;;21.46;42.69;101497.03;4997999;28;20390;-62
2021/10/22 10:22:31;;;;;;;4.60;1.10;;;;;;;21.43;42.71;101484.03;4999012;28;20471;-59
2021/10/22 10:24:59;;;;;;;4.78;1.45;;;;;;;21.42;42.89;101501.75;4998668;28;20125;-60
2021/10/22 10:27:25;;;;;;;3.58;1.02;;;;;;;21.42;42.50;101495.63;4997958;28;20088;-61
2021/10/22 10:29:55;;;;;;;7.82;1.50;;;;;;;21.40;42.77;101498.41;4998819;28;20042;-61
2021/10/22 10:32:27;;;;;;;4.22;1.02;;;;;;;21.36;42.94;101505.78;4998236;28;20026;-61
2021/10/22 10:34:55;;;;;;;5.97;1.33;;;;;;;21.33;42.89;101506.06;4995140;28;20125;-62
2021/10/22 10:37:53;;;;;;;4.65;1.30;;;;;;;21.38;42.78;101514.44;4997320;28;20023;-64
2021/10/22 10:40:22;;;;;;;4.18;1.20;;;;;;;21.46;42.26;101513.78;4983325;28;20473;-61
2021/10/22 10:42:54;;;;;;;5.82;1.35;;;;;;;21.53;42.59;101516.78;4996076;28;20061;-61
2021/10/22 10:45:23;;;;;;;5.50;0.93;;;;;;;21.58;42.12;101514.59;4996924;28;20038;-60
2021/10/22 10:48:09;;;;;;;2.88;1.00;;;;;;;21.62;42.16;101520.47;4995899;28;20026;-61
2021/10/22 10:51:02;;;;;;;4.22;1.10;;;;;;;21.63;42.05;101512.38;4997003;28;20122;-61
2021/10/22 10:53:30;;;;;;;4.40;1.13;;;;;;;21.66;42.06;101519.22;4996990;28;20176;-61
2021/10/22 10:55:56;;;;;;;5.32;1.10;;;;;;;21.65;42.12;101526.38;4996982;28;20058;-61
2021/10/22 10:58:23;;;;;;;3.83;1.00;;;;;;;21.65;42.43;101529.00;4996465;28;20034;-62
2021/10/22 11:01:00;;;;;;;5.18;1.58;;;;;;;21.62;41.47;101531.94;4995559;28;20084;-61
2021/10/22 11:03:41;;;;;;;3.55;1.00;;;;;;;21.59;41.63;101533.97;4994842;28;20051;-61
2021/10/22 11:06:07;;;;;;;3.55;1.00;;;;;;;21.58;42.20;101535.81;4996020;28;20441;-61
2021/10/22 11:08:32;;;;;;;4.43;1.02;;;;;;;21.58;42.16;101533.16;4994980;28;20023;-61
2021/10/22 11:11:17;;;;;;;4.67;1.20;;;;;;;21.55;42.29;101528.97;4995552;28;20082;-61
2021/10/22 11:13:51;;;;;;;3.75;0.98;;;;;;;21.54;42.09;101534.41;4995302;28;20045;-58
2021/10/22 11:16:23;;;;;;;;;;;;;;;21.45;42.63;101537.78;4994500;28;20058;-59
2021/10/22 11:19:19;;;;;;;4.93;1.20;;;;;;;21.39;42.40;101544.44;4995178;28;19917;-60
2021/10/22 11:21:50;;;;;;;3.67;1.10;;;;;;;21.25;42.99;101542.94;4993785;28;20046;-63
2021/10/22 11:24:20;;;;;;;4.57;1.10;;;;;;;21.19;43.14;101546.13;4993985;28;20026;-60
2021/10/22 11:27:00;;;;;;;3.72;1.20;;;;;;;21.17;43.35;101535.66;4994951;28;20026;-61
2021/10/22 11:29:27;;;;;;;4.10;1.20;;;;;;;21.19;43.27;101556.72;4994171;28;20038;-60
2021/10/22 11:32:01;;;;;;;3.92;1.20;;;;;;;21.20;43.34;101558.41;4994862;28;20038;-60
2021/10/22 11:34:29;;;;;;;5.28;1.13;;;;;;;21.22;43.52;101545.88;4994738;28;20042;-60